sensor_id;sensor_type;location;lat;lon;timestamp;temperature;humidity
55828;DHT22;41758;51.992;5.890;2022-10-19T00:01:48;19.10;71.90
55828;DHT22;41758;51.992;5.890;2022-10-19T00:04:14;19.10;72.00
55828;DHT22;41758;51.992;5.890;2022-10-19T00:06:39;19.00;71.90
55828;DHT22;41758;51.992;5.890;2022-10-19T00:09:11;19.00;71.90
55828;DHT22;41758;51.992;5.890;2022-10-19T00:11:39;19.00;72.00
55828;DHT22;41758;51.992;5.890;2022-10-19T00:14:05;19.00;72.00
55828;DHT22;41758;51.992;5.890;2022-10-19T00:16:34;19.00;72.00
55828;DHT22;41758;51.992;5.890;2022-10-19T00:19:02;19.00;72.00
55828;DHT22;41758;51.992;5.890;2022-10-19T00:21:29;19.00;72.00
55828;DHT22;41758;51.992;5.890;2022-10-19T00:23:55;19.00;72.10
55828;DHT22;41758;51.992;5.890;2022-10-19T00:26:21;19.00;72.00
55828;DHT22;41758;51.992;5.890;2022-10-19T00:28:47;19.00;72.00
55828;DHT22;41758;51.992;5.890;2022-10-19T00:31:15;19.00;72.00
55828;DHT22;41758;51.992;5.890;2022-10-19T00:33:41;19.00;72.00
55828;DHT22;41758;51.992;5.890;2022-10-19T00:36:26;19.00;72.10
55828;DHT22;41758;51.992;5.890;2022-10-19T00:38:52;19.00;71.80
55828;DHT22;41758;51.992;5.890;2022-10-19T00:41:19;18.90;71.30
55828;DHT22;41758;51.992;5.890;2022-10-19T00:43:56;18.90;72.00
55828;DHT22;41758;51.992;5.890;2022-10-19T00:46:23;18.90;72.10
55828;DHT22;41758;51.992;5.890;2022-10-19T00:48:53;18.90;72.20
55828;DHT22;41758;51.992;5.890;2022-10-19T00:51:20;18.90;72.20
55828;DHT22;41758;51.992;5.890;2022-10-19T00:53:46;18.90;72.10
55828;DHT22;41758;51.992;5.890;2022-10-19T00:56:13;18.90;72.10
55828;DHT22;41758;51.992;5.890;2022-10-19T00:58:40;18.90;72.10
55828;DHT22;41758;51.992;5.890;2022-10-19T01:01:08;18.90;72.10
55828;DHT22;41758;51.992;5.890;2022-10-19T01:03:37;18.90;72.10
55828;DHT22;41758;51.992;5.890;2022-10-19T01:06:02;18.90;72.10
55828;DHT22;41758;51.992;5.890;2022-10-19T01:08:29;18.90;72.10
55828;DHT22;41758;51.992;5.890;2022-10-19T01:16:33;18.80;71.80
55828;DHT22;41758;51.992;5.890;2022-10-19T01:22:15;18.80;71.80
55828;DHT22;41758;51.992;5.890;2022-10-19T01:25:48;18.80;71.90
55828;DHT22;41758;51.992;5.890;2022-10-19T01:30:58;18.80;72.20
55828;DHT22;41758;51.992;5.890;2022-10-19T01:38:55;18.70;72.20
55828;DHT22;41758;51.992;5.890;2022-10-19T01:46:55;18.70;72.00
55828;DHT22;41758;51.992;5.890;2022-10-19T01:49:33;18.70;72.20
55828;DHT22;41758;51.992;5.890;2022-10-19T01:52:03;18.60;72.10
55828;DHT22;41758;51.992;5.890;2022-10-19T01:54:35;18.60;72.10
55828;DHT22;41758;51.992;5.890;2022-10-19T01:57:05;18.60;72.10
55828;DHT22;41758;51.992;5.890;2022-10-19T01:59:32;18.60;72.10
55828;DHT22;41758;51.992;5.890;2022-10-19T02:01:59;18.60;72.00
55828;DHT22;41758;51.992;5.890;2022-10-19T02:04:26;18.60;71.90
55828;DHT22;41758;51.992;5.890;2022-10-19T02:06:53;18.50;71.80
55828;DHT22;41758;51.992;5.890;2022-10-19T02:09:19;18.50;71.80
55828;DHT22;41758;51.992;5.890;2022-10-19T02:11:46;18.50;71.80
55828;DHT22;41758;51.992;5.890;2022-10-19T02:14:15;18.50;71.90
55828;DHT22;41758;51.992;5.890;2022-10-19T02:17:05;18.50;71.90
55828;DHT22;41758;51.992;5.890;2022-10-19T02:19:32;18.50;71.50
55828;DHT22;41758;51.992;5.890;2022-10-19T02:21:58;18.40;71.80
55828;DHT22;41758;51.992;5.890;2022-10-19T02:24:24;18.40;71.80
55828;DHT22;41758;51.992;5.890;2022-10-19T02:26:50;18.40;71.80
55828;DHT22;41758;51.992;5.890;2022-10-19T02:29:16;18.40;71.80
55828;DHT22;41758;51.992;5.890;2022-10-19T02:31:43;18.30;71.80
55828;DHT22;41758;51.992;5.890;2022-10-19T02:34:10;18.40;71.90
55828;DHT22;41758;51.992;5.890;2022-10-19T02:36:36;18.30;71.90
55828;DHT22;41758;51.992;5.890;2022-10-19T02:39:02;18.30;72.00
55828;DHT22;41758;51.992;5.890;2022-10-19T02:44:46;18.40;72.00
55828;DHT22;41758;51.992;5.890;2022-10-19T02:47:51;18.30;71.30
55828;DHT22;41758;51.992;5.890;2022-10-19T02:50:10;18.30;72.10
55828;DHT22;41758;51.992;5.890;2022-10-19T02:52:37;18.30;72.10
55828;DHT22;41758;51.992;5.890;2022-10-19T02:55:03;18.30;72.10
55828;DHT22;41758;51.992;5.890;2022-10-19T02:57:29;18.30;72.20
55828;DHT22;41758;51.992;5.890;2022-10-19T02:59:57;18.30;72.30
55828;DHT22;41758;51.992;5.890;2022-10-19T03:02:24;18.30;72.30
55828;DHT22;41758;51.992;5.890;2022-10-19T03:04:49;18.30;72.30
55828;DHT22;41758;51.992;5.890;2022-10-19T03:07:17;18.30;72.20
55828;DHT22;41758;51.992;5.890;2022-10-19T03:09:43;18.30;72.30
55828;DHT22;41758;51.992;5.890;2022-10-19T03:12:11;18.30;72.20
55828;DHT22;41758;51.992;5.890;2022-10-19T03:14:37;18.30;72.20
55828;DHT22;41758;51.992;5.890;2022-10-19T03:17:03;18.30;72.20
55828;DHT22;41758;51.992;5.890;2022-10-19T03:19:29;18.30;72.20
55828;DHT22;41758;51.992;5.890;2022-10-19T03:21:54;18.30;72.20
55828;DHT22;41758;51.992;5.890;2022-10-19T03:24:20;18.30;72.20
55828;DHT22;41758;51.992;5.890;2022-10-19T03:26:46;18.30;72.20
55828;DHT22;41758;51.992;5.890;2022-10-19T03:29:11;18.30;72.30
55828;DHT22;41758;51.992;5.890;2022-10-19T03:31:37;18.30;72.30
55828;DHT22;41758;51.992;5.890;2022-10-19T03:34:03;18.30;72.30
55828;DHT22;41758;51.992;5.890;2022-10-19T03:36:31;18.30;72.30
55828;DHT22;41758;51.992;5.890;2022-10-19T03:39:00;18.30;72.50
55828;DHT22;41758;51.992;5.890;2022-10-19T03:41:27;18.30;72.50
55828;DHT22;41758;51.992;5.890;2022-10-19T03:43:54;18.30;72.40
55828;DHT22;41758;51.992;5.890;2022-10-19T03:46:20;18.30;72.40
55828;DHT22;41758;51.992;5.890;2022-10-19T03:48:46;18.30;72.30
55828;DHT22;41758;51.992;5.890;2022-10-19T03:51:24;18.30;72.30
55828;DHT22;41758;51.992;5.890;2022-10-19T03:53:52;18.30;72.40
55828;DHT22;41758;51.992;5.890;2022-10-19T03:56:21;18.30;72.30
55828;DHT22;41758;51.992;5.890;2022-10-19T03:58:48;18.30;72.40
55828;DHT22;41758;51.992;5.890;2022-10-19T04:03:45;18.30;72.40
55828;DHT22;41758;51.992;5.890;2022-10-19T04:06:16;18.30;72.30
55828;DHT22;41758;51.992;5.890;2022-10-19T04:08:42;18.30;72.30
55828;DHT22;41758;51.992;5.890;2022-10-19T04:11:11;18.30;72.20
55828;DHT22;41758;51.992;5.890;2022-10-19T04:13:38;18.30;72.30
55828;DHT22;41758;51.992;5.890;2022-10-19T04:16:05;18.30;72.30
55828;DHT22;41758;51.992;5.890;2022-10-19T04:18:31;18.30;72.30
55828;DHT22;41758;51.992;5.890;2022-10-19T04:21:02;18.30;72.30
55828;DHT22;41758;51.992;5.890;2022-10-19T04:23:30;18.30;72.30
55828;DHT22;41758;51.992;5.890;2022-10-19T04:26:00;18.30;72.40
55828;DHT22;41758;51.992;5.890;2022-10-19T04:28:26;18.30;72.40
55828;DHT22;41758;51.992;5.890;2022-10-19T04:30:51;18.30;72.30
55828;DHT22;41758;51.992;5.890;2022-10-19T04:33:17;18.30;72.30
55828;DHT22;41758;51.992;5.890;2022-10-19T04:35:43;18.30;72.30
55828;DHT22;41758;51.992;5.890;2022-10-19T04:38:08;18.30;72.40
55828;DHT22;41758;51.992;5.890;2022-10-19T04:40:35;18.30;72.30
55828;DHT22;41758;51.992;5.890;2022-10-19T04:43:01;18.30;72.40
55828;DHT22;41758;51.992;5.890;2022-10-19T04:45:27;18.30;72.40
55828;DHT22;41758;51.992;5.890;2022-10-19T04:47:53;18.30;72.40
55828;DHT22;41758;51.992;5.890;2022-10-19T04:50:21;18.30;72.30
55828;DHT22;41758;51.992;5.890;2022-10-19T04:52:54;18.30;72.40
55828;DHT22;41758;51.992;5.890;2022-10-19T04:55:19;18.30;72.30
55828;DHT22;41758;51.992;5.890;2022-10-19T04:57:45;18.30;72.30
55828;DHT22;41758;51.992;5.890;2022-10-19T05:00:11;18.30;72.30
55828;DHT22;41758;51.992;5.890;2022-10-19T05:02:44;18.30;72.30
55828;DHT22;41758;51.992;5.890;2022-10-19T05:05:11;18.30;72.40
55828;DHT22;41758;51.992;5.890;2022-10-19T05:07:37;18.30;72.20
55828;DHT22;41758;51.992;5.890;2022-10-19T05:10:03;18.30;72.00
55828;DHT22;41758;51.992;5.890;2022-10-19T05:12:29;18.30;72.00
55828;DHT22;41758;51.992;5.890;2022-10-19T05:14:54;18.20;72.10
55828;DHT22;41758;51.992;5.890;2022-10-19T05:17:20;18.20;72.10
55828;DHT22;41758;51.992;5.890;2022-10-19T05:19:46;18.20;72.10
55828;DHT22;41758;51.992;5.890;2022-10-19T05:22:11;18.10;72.10
55828;DHT22;41758;51.992;5.890;2022-10-19T05:24:37;18.10;72.00
55828;DHT22;41758;51.992;5.890;2022-10-19T05:27:03;18.10;71.90
55828;DHT22;41758;51.992;5.890;2022-10-19T05:29:28;18.10;71.80
55828;DHT22;41758;51.992;5.890;2022-10-19T05:31:54;18.10;71.90
55828;DHT22;41758;51.992;5.890;2022-10-19T05:34:20;18.10;72.00
55828;DHT22;41758;51.992;5.890;2022-10-19T05:36:46;18.00;72.10
55828;DHT22;41758;51.992;5.890;2022-10-19T05:39:14;18.10;72.20
55828;DHT22;41758;51.992;5.890;2022-10-19T05:41:44;18.00;72.20
55828;DHT22;41758;51.992;5.890;2022-10-19T05:44:21;18.00;72.30
55828;DHT22;41758;51.992;5.890;2022-10-19T05:46:48;18.10;72.20
55828;DHT22;41758;51.992;5.890;2022-10-19T05:49:15;18.00;72.10
55828;DHT22;41758;51.992;5.890;2022-10-19T05:51:42;18.00;72.00
55828;DHT22;41758;51.992;5.890;2022-10-19T05:54:09;17.90;71.80
55828;DHT22;41758;51.992;5.890;2022-10-19T05:56:35;17.90;71.60
55828;DHT22;41758;51.992;5.890;2022-10-19T05:59:03;17.90;71.60
55828;DHT22;41758;51.992;5.890;2022-10-19T06:01:30;17.90;71.60
55828;DHT22;41758;51.992;5.890;2022-10-19T06:03:57;17.80;71.70
55828;DHT22;41758;51.992;5.890;2022-10-19T06:06:24;17.80;71.80
55828;DHT22;41758;51.992;5.890;2022-10-19T06:08:50;17.80;71.70
55828;DHT22;41758;51.992;5.890;2022-10-19T06:11:27;17.80;71.80
55828;DHT22;41758;51.992;5.890;2022-10-19T06:13:54;17.80;71.70
55828;DHT22;41758;51.992;5.890;2022-10-19T06:16:22;17.80;71.90
55828;DHT22;41758;51.992;5.890;2022-10-19T06:18:48;17.80;72.20
55828;DHT22;41758;51.992;5.890;2022-10-19T06:21:16;17.80;72.30
55828;DHT22;41758;51.992;5.890;2022-10-19T06:23:43;17.80;72.40
55828;DHT22;41758;51.992;5.890;2022-10-19T06:26:13;17.80;72.30
55828;DHT22;41758;51.992;5.890;2022-10-19T06:28:40;17.80;72.40
55828;DHT22;41758;51.992;5.890;2022-10-19T06:31:06;17.80;72.30
55828;DHT22;41758;51.992;5.890;2022-10-19T06:33:33;17.80;72.20
55828;DHT22;41758;51.992;5.890;2022-10-19T06:36:14;17.80;72.30
55828;DHT22;41758;51.992;5.890;2022-10-19T06:38:40;17.80;72.40
55828;DHT22;41758;51.992;5.890;2022-10-19T06:41:06;17.90;72.50
55828;DHT22;41758;51.992;5.890;2022-10-19T06:43:32;17.90;72.50
55828;DHT22;41758;51.992;5.890;2022-10-19T06:45:58;17.90;72.50
55828;DHT22;41758;51.992;5.890;2022-10-19T06:48:24;17.90;72.60
55828;DHT22;41758;51.992;5.890;2022-10-19T06:51:00;18.00;72.60
55828;DHT22;41758;51.992;5.890;2022-10-19T06:53:26;18.00;72.70
55828;DHT22;41758;51.992;5.890;2022-10-19T06:55:56;18.00;72.60
55828;DHT22;41758;51.992;5.890;2022-10-19T06:58:23;18.00;72.80
55828;DHT22;41758;51.992;5.890;2022-10-19T07:00:57;18.00;72.70
55828;DHT22;41758;51.992;5.890;2022-10-19T07:03:28;18.00;72.70
55828;DHT22;41758;51.992;5.890;2022-10-19T07:05:55;18.10;72.60
55828;DHT22;41758;51.992;5.890;2022-10-19T07:08:22;18.10;72.70
55828;DHT22;41758;51.992;5.890;2022-10-19T07:10:52;18.10;72.70
55828;DHT22;41758;51.992;5.890;2022-10-19T07:13:19;18.10;72.80
55828;DHT22;41758;51.992;5.890;2022-10-19T07:15:45;18.10;72.80
55828;DHT22;41758;51.992;5.890;2022-10-19T07:18:11;18.20;72.80
55828;DHT22;41758;51.992;5.890;2022-10-19T07:20:36;18.20;72.90
55828;DHT22;41758;51.992;5.890;2022-10-19T07:23:02;18.30;72.90
55828;DHT22;41758;51.992;5.890;2022-10-19T07:25:28;18.30;72.90
55828;DHT22;41758;51.992;5.890;2022-10-19T07:27:55;18.30;72.90
55828;DHT22;41758;51.992;5.890;2022-10-19T07:30:21;18.40;73.00
55828;DHT22;41758;51.992;5.890;2022-10-19T07:32:47;18.40;73.00
55828;DHT22;41758;51.992;5.890;2022-10-19T07:35:13;18.40;73.00
55828;DHT22;41758;51.992;5.890;2022-10-19T07:37:38;18.40;73.10
55828;DHT22;41758;51.992;5.890;2022-10-19T07:40:04;18.50;73.00
55828;DHT22;41758;51.992;5.890;2022-10-19T07:42:30;18.50;73.00
55828;DHT22;41758;51.992;5.890;2022-10-19T07:44:55;18.60;73.00
55828;DHT22;41758;51.992;5.890;2022-10-19T07:47:21;18.60;73.00
55828;DHT22;41758;51.992;5.890;2022-10-19T07:49:47;18.60;73.10
55828;DHT22;41758;51.992;5.890;2022-10-19T07:52:13;18.60;73.10
55828;DHT22;41758;51.992;5.890;2022-10-19T07:54:38;18.70;73.10
55828;DHT22;41758;51.992;5.890;2022-10-19T07:57:04;18.70;73.00
55828;DHT22;41758;51.992;5.890;2022-10-19T07:59:30;18.70;73.10
55828;DHT22;41758;51.992;5.890;2022-10-19T08:01:55;18.80;73.10
55828;DHT22;41758;51.992;5.890;2022-10-19T08:04:22;18.80;73.10
55828;DHT22;41758;51.992;5.890;2022-10-19T08:06:48;18.80;73.00
55828;DHT22;41758;51.992;5.890;2022-10-19T08:09:14;18.80;72.90
55828;DHT22;41758;51.992;5.890;2022-10-19T08:11:39;18.80;72.90
55828;DHT22;41758;51.992;5.890;2022-10-19T08:14:05;18.80;72.90
55828;DHT22;41758;51.992;5.890;2022-10-19T08:16:38;18.80;72.90
55828;DHT22;41758;51.992;5.890;2022-10-19T08:19:11;18.90;72.90
55828;DHT22;41758;51.992;5.890;2022-10-19T08:21:39;18.90;72.90
55828;DHT22;41758;51.992;5.890;2022-10-19T08:24:06;18.90;72.80
55828;DHT22;41758;51.992;5.890;2022-10-19T08:26:33;18.90;72.70
55828;DHT22;41758;51.992;5.890;2022-10-19T08:29:00;18.90;72.70
55828;DHT22;41758;51.992;5.890;2022-10-19T08:31:26;18.90;72.70
55828;DHT22;41758;51.992;5.890;2022-10-19T08:33:52;18.90;72.70
55828;DHT22;41758;51.992;5.890;2022-10-19T08:36:18;18.90;72.60
55828;DHT22;41758;51.992;5.890;2022-10-19T08:38:47;18.90;72.70
55828;DHT22;41758;51.992;5.890;2022-10-19T08:49:38;18.90;72.30
55828;DHT22;41758;51.992;5.890;2022-10-19T08:52:25;18.90;72.70
55828;DHT22;41758;51.992;5.890;2022-10-19T08:54:59;18.90;72.60
55828;DHT22;41758;51.992;5.890;2022-10-19T08:58:02;18.90;72.90
55828;DHT22;41758;51.992;5.890;2022-10-19T09:00:44;19.00;72.70
55828;DHT22;41758;51.992;5.890;2022-10-19T09:03:45;18.90;72.80
55828;DHT22;41758;51.992;5.890;2022-10-19T09:08:52;19.00;73.00
55828;DHT22;41758;51.992;5.890;2022-10-19T09:11:22;19.00;73.00
55828;DHT22;41758;51.992;5.890;2022-10-19T09:13:57;19.00;73.00
55828;DHT22;41758;51.992;5.890;2022-10-19T09:16:25;19.10;73.00
55828;DHT22;41758;51.992;5.890;2022-10-19T09:18:51;19.10;72.90
55828;DHT22;41758;51.992;5.890;2022-10-19T09:21:43;19.10;72.90
55828;DHT22;41758;51.992;5.890;2022-10-19T09:24:27;19.10;73.00
55828;DHT22;41758;51.992;5.890;2022-10-19T09:26:59;19.20;72.90
55828;DHT22;41758;51.992;5.890;2022-10-19T09:29:38;19.20;73.00
55828;DHT22;41758;51.992;5.890;2022-10-19T09:32:12;19.20;72.90
55828;DHT22;41758;51.992;5.890;2022-10-19T09:34:49;19.30;73.00
55828;DHT22;41758;51.992;5.890;2022-10-19T09:37:17;19.30;73.00
55828;DHT22;41758;51.992;5.890;2022-10-19T09:39:44;19.30;73.00
55828;DHT22;41758;51.992;5.890;2022-10-19T09:42:25;19.40;73.00
55828;DHT22;41758;51.992;5.890;2022-10-19T09:44:54;19.40;72.90
55828;DHT22;41758;51.992;5.890;2022-10-19T09:47:39;19.50;72.90
55828;DHT22;41758;51.992;5.890;2022-10-19T09:50:28;19.50;72.50
55828;DHT22;41758;51.992;5.890;2022-10-19T09:53:02;19.50;72.70
55828;DHT22;41758;51.992;5.890;2022-10-19T09:55:38;19.50;72.60
55828;DHT22;41758;51.992;5.890;2022-10-19T10:00:43;19.60;72.70
55828;DHT22;41758;51.992;5.890;2022-10-19T10:03:30;19.60;72.70
55828;DHT22;41758;51.992;5.890;2022-10-19T10:06:00;19.70;72.60
55828;DHT22;41758;51.992;5.890;2022-10-19T10:08:30;19.70;72.40
55828;DHT22;41758;51.992;5.890;2022-10-19T10:11:11;19.70;72.10
55828;DHT22;41758;51.992;5.890;2022-10-19T10:13:49;19.80;72.10
55828;DHT22;41758;51.992;5.890;2022-10-19T10:16:19;19.70;71.40
55828;DHT22;41758;51.992;5.890;2022-10-19T10:21:28;19.70;72.00
55828;DHT22;41758;51.992;5.890;2022-10-19T10:24:02;19.70;72.00
55828;DHT22;41758;51.992;5.890;2022-10-19T10:26:30;19.70;72.00
55828;DHT22;41758;51.992;5.890;2022-10-19T10:28:56;19.70;71.70
55828;DHT22;41758;51.992;5.890;2022-10-19T10:31:26;19.70;72.10
55828;DHT22;41758;51.992;5.890;2022-10-19T10:33:57;19.70;72.10
55828;DHT22;41758;51.992;5.890;2022-10-19T10:36:27;19.80;71.90
55828;DHT22;41758;51.992;5.890;2022-10-19T10:39:06;19.80;72.00
55828;DHT22;41758;51.992;5.890;2022-10-19T10:41:39;19.90;72.00
55828;DHT22;41758;51.992;5.890;2022-10-19T10:44:32;19.90;72.10
55828;DHT22;41758;51.992;5.890;2022-10-19T10:47:03;20.00;72.10
55828;DHT22;41758;51.992;5.890;2022-10-19T10:49:37;20.00;72.00
55828;DHT22;41758;51.992;5.890;2022-10-19T10:52:06;20.10;71.80
55828;DHT22;41758;51.992;5.890;2022-10-19T10:54:34;20.10;71.70
55828;DHT22;41758;51.992;5.890;2022-10-19T10:57:17;20.20;71.50
55828;DHT22;41758;51.992;5.890;2022-10-19T10:59:52;20.20;71.20
55828;DHT22;41758;51.992;5.890;2022-10-19T11:07:52;20.30;70.90
55828;DHT22;41758;51.992;5.890;2022-10-19T11:10:23;20.30;70.90
55828;DHT22;41758;51.992;5.890;2022-10-19T11:13:04;20.30;70.70
55828;DHT22;41758;51.992;5.890;2022-10-19T11:15:38;20.30;70.80
55828;DHT22;41758;51.992;5.890;2022-10-19T11:21:19;20.30;71.10
55828;DHT22;41758;51.992;5.890;2022-10-19T11:40:42;20.50;70.70
55828;DHT22;41758;51.992;5.890;2022-10-19T11:43:27;20.80;71.40
55828;DHT22;41758;51.992;5.890;2022-10-19T11:48:59;21.30;69.50
55828;DHT22;41758;51.992;5.890;2022-10-19T11:51:52;21.60;68.80
55828;DHT22;41758;51.992;5.890;2022-10-19T11:57:10;21.90;68.30
55828;DHT22;41758;51.992;5.890;2022-10-19T12:11:42;24.10;63.60
55828;DHT22;41758;51.992;5.890;2022-10-19T12:14:16;24.50;62.60
55828;DHT22;41758;51.992;5.890;2022-10-19T12:16:45;24.80;61.50
55828;DHT22;41758;51.992;5.890;2022-10-19T12:19:41;25.20;60.80
55828;DHT22;41758;51.992;5.890;2022-10-19T12:22:14;25.60;60.50
55828;DHT22;41758;51.992;5.890;2022-10-19T12:24:41;25.90;59.50
55828;DHT22;41758;51.992;5.890;2022-10-19T12:27:11;26.20;58.10
55828;DHT22;41758;51.992;5.890;2022-10-19T12:29:41;26.50;56.70
55828;DHT22;41758;51.992;5.890;2022-10-19T12:32:11;26.70;55.20
55828;DHT22;41758;51.992;5.890;2022-10-19T12:34:57;26.90;54.40
55828;DHT22;41758;51.992;5.890;2022-10-19T12:37:43;27.00;53.90
55828;DHT22;41758;51.992;5.890;2022-10-19T12:40:22;27.10;53.50
55828;DHT22;41758;51.992;5.890;2022-10-19T12:42:56;27.30;53.30
55828;DHT22;41758;51.992;5.890;2022-10-19T12:48:20;27.70;52.40
55828;DHT22;41758;51.992;5.890;2022-10-19T12:53:45;27.90;50.80
55828;DHT22;41758;51.992;5.890;2022-10-19T12:58:55;27.80;50.30
55828;DHT22;41758;51.992;5.890;2022-10-19T13:01:42;27.70;51.70
55828;DHT22;41758;51.992;5.890;2022-10-19T13:04:18;27.30;52.00
55828;DHT22;41758;51.992;5.890;2022-10-19T13:06:47;26.90;52.30
55828;DHT22;41758;51.992;5.890;2022-10-19T13:09:31;26.40;52.40
55828;DHT22;41758;51.992;5.890;2022-10-19T13:14:51;25.20;55.60
55828;DHT22;41758;51.992;5.890;2022-10-19T13:22:40;23.80;58.10
55828;DHT22;41758;51.992;5.890;2022-10-19T13:27:41;23.30;59.90
55828;DHT22;41758;51.992;5.890;2022-10-19T13:41:18;22.30;62.40
55828;DHT22;41758;51.992;5.890;2022-10-19T13:43:59;22.10;63.00
55828;DHT22;41758;51.992;5.890;2022-10-19T14:02:52;21.60;64.50
55828;DHT22;41758;51.992;5.890;2022-10-19T14:05:51;21.60;64.80
55828;DHT22;41758;51.992;5.890;2022-10-19T14:11:17;21.40;64.90
55828;DHT22;41758;51.992;5.890;2022-10-19T14:13:44;21.30;65.30
55828;DHT22;41758;51.992;5.890;2022-10-19T14:16:20;21.30;65.50
55828;DHT22;41758;51.992;5.890;2022-10-19T14:19:13;21.30;65.60
55828;DHT22;41758;51.992;5.890;2022-10-19T14:21:43;21.30;65.90
55828;DHT22;41758;51.992;5.890;2022-10-19T14:24:22;21.30;65.90
55828;DHT22;41758;51.992;5.890;2022-10-19T14:26:51;21.20;66.00
55828;DHT22;41758;51.992;5.890;2022-10-19T14:29:17;21.20;66.00
55828;DHT22;41758;51.992;5.890;2022-10-19T14:31:42;21.10;66.10
55828;DHT22;41758;51.992;5.890;2022-10-19T14:34:08;21.10;66.40
55828;DHT22;41758;51.992;5.890;2022-10-19T14:36:37;21.10;66.40
55828;DHT22;41758;51.992;5.890;2022-10-19T14:39:04;21.10;66.40
55828;DHT22;41758;51.992;5.890;2022-10-19T14:41:33;21.10;66.50
55828;DHT22;41758;51.992;5.890;2022-10-19T14:44:01;21.10;66.50
55828;DHT22;41758;51.992;5.890;2022-10-19T14:46:46;21.00;66.50
55828;DHT22;41758;51.992;5.890;2022-10-19T14:49:17;21.00;66.50
55828;DHT22;41758;51.992;5.890;2022-10-19T14:51:57;21.00;66.50
55828;DHT22;41758;51.992;5.890;2022-10-19T14:54:28;21.00;66.60
55828;DHT22;41758;51.992;5.890;2022-10-19T14:57:12;21.00;66.60
55828;DHT22;41758;51.992;5.890;2022-10-19T15:00:00;21.00;66.70
55828;DHT22;41758;51.992;5.890;2022-10-19T15:02:43;20.90;66.80
55828;DHT22;41758;51.992;5.890;2022-10-19T15:05:20;20.90;66.80
55828;DHT22;41758;51.992;5.890;2022-10-19T15:07:47;20.90;66.80
55828;DHT22;41758;51.992;5.890;2022-10-19T15:10:18;20.90;66.90
55828;DHT22;41758;51.992;5.890;2022-10-19T15:12:45;20.90;66.90
55828;DHT22;41758;51.992;5.890;2022-10-19T15:15:37;20.90;66.90
55828;DHT22;41758;51.992;5.890;2022-10-19T15:18:06;20.90;67.00
55828;DHT22;41758;51.992;5.890;2022-10-19T15:20:36;20.90;67.00
55828;DHT22;41758;51.992;5.890;2022-10-19T15:23:45;20.90;67.00
55828;DHT22;41758;51.992;5.890;2022-10-19T15:28:49;20.90;67.10
55828;DHT22;41758;51.992;5.890;2022-10-19T15:31:26;20.90;67.10
55828;DHT22;41758;51.992;5.890;2022-10-19T15:33:55;20.90;67.10
55828;DHT22;41758;51.992;5.890;2022-10-19T15:36:22;20.90;67.10
55828;DHT22;41758;51.992;5.890;2022-10-19T15:39:04;20.90;67.20
55828;DHT22;41758;51.992;5.890;2022-10-19T15:41:34;20.80;67.20
55828;DHT22;41758;51.992;5.890;2022-10-19T15:44:03;20.80;67.20
55828;DHT22;41758;51.992;5.890;2022-10-19T15:52:16;20.80;67.40
55828;DHT22;41758;51.992;5.890;2022-10-19T15:54:42;20.70;67.50
55828;DHT22;41758;51.992;5.890;2022-10-19T15:57:32;20.70;67.60
55828;DHT22;41758;51.992;5.890;2022-10-19T16:00:05;20.60;67.80
55828;DHT22;41758;51.992;5.890;2022-10-19T16:02:32;20.60;67.90
55828;DHT22;41758;51.992;5.890;2022-10-19T16:04:57;20.60;68.00
55828;DHT22;41758;51.992;5.890;2022-10-19T16:07:30;20.50;68.00
55828;DHT22;41758;51.992;5.890;2022-10-19T16:09:56;20.50;68.00
55828;DHT22;41758;51.992;5.890;2022-10-19T16:12:22;20.40;68.20
55828;DHT22;41758;51.992;5.890;2022-10-19T16:14:48;20.40;68.20
55828;DHT22;41758;51.992;5.890;2022-10-19T16:17:14;20.40;68.20
55828;DHT22;41758;51.992;5.890;2022-10-19T16:19:41;20.40;68.30
55828;DHT22;41758;51.992;5.890;2022-10-19T16:22:07;20.40;68.40
55828;DHT22;41758;51.992;5.890;2022-10-19T16:24:33;20.30;68.30
55828;DHT22;41758;51.992;5.890;2022-10-19T16:26:58;20.40;68.30
55828;DHT22;41758;51.992;5.890;2022-10-19T16:29:24;20.30;68.30
55828;DHT22;41758;51.992;5.890;2022-10-19T16:31:50;20.30;68.30
55828;DHT22;41758;51.992;5.890;2022-10-19T16:34:16;20.30;68.40
55828;DHT22;41758;51.992;5.890;2022-10-19T16:36:42;20.30;68.50
55828;DHT22;41758;51.992;5.890;2022-10-19T16:39:07;20.30;68.50
55828;DHT22;41758;51.992;5.890;2022-10-19T16:41:33;20.30;68.60
55828;DHT22;41758;51.992;5.890;2022-10-19T16:43:58;20.30;68.60
55828;DHT22;41758;51.992;5.890;2022-10-19T16:46:25;20.30;68.70
55828;DHT22;41758;51.992;5.890;2022-10-19T16:48:51;20.30;68.70
55828;DHT22;41758;51.992;5.890;2022-10-19T16:53:45;20.20;68.80
55828;DHT22;41758;51.992;5.890;2022-10-19T16:56:13;20.20;68.90
55828;DHT22;41758;51.992;5.890;2022-10-19T16:58:39;20.20;68.90
55828;DHT22;41758;51.992;5.890;2022-10-19T17:01:13;20.20;69.00
55828;DHT22;41758;51.992;5.890;2022-10-19T17:03:40;20.20;69.10
55828;DHT22;41758;51.992;5.890;2022-10-19T17:06:07;20.10;69.10
55828;DHT22;41758;51.992;5.890;2022-10-19T17:08:34;20.20;69.20
55828;DHT22;41758;51.992;5.890;2022-10-19T17:11:18;20.20;69.20
55828;DHT22;41758;51.992;5.890;2022-10-19T17:13:46;20.10;69.20
55828;DHT22;41758;51.992;5.890;2022-10-19T17:16:13;20.10;69.30
55828;DHT22;41758;51.992;5.890;2022-10-19T17:18:40;20.10;69.40
55828;DHT22;41758;51.992;5.890;2022-10-19T17:21:16;20.10;69.40
55828;DHT22;41758;51.992;5.890;2022-10-19T17:23:42;20.10;69.40
55828;DHT22;41758;51.992;5.890;2022-10-19T17:26:08;20.10;69.40
55828;DHT22;41758;51.992;5.890;2022-10-19T17:28:36;20.10;69.50
55828;DHT22;41758;51.992;5.890;2022-10-19T17:31:04;20.10;69.50
55828;DHT22;41758;51.992;5.890;2022-10-19T17:33:30;20.00;69.50
55828;DHT22;41758;51.992;5.890;2022-10-19T17:36:02;20.00;69.50
55828;DHT22;41758;51.992;5.890;2022-10-19T17:38:28;20.00;69.50
55828;DHT22;41758;51.992;5.890;2022-10-19T17:40:54;20.00;69.50
55828;DHT22;41758;51.992;5.890;2022-10-19T17:43:19;20.00;69.50
55828;DHT22;41758;51.992;5.890;2022-10-19T17:45:45;20.00;69.40
55828;DHT22;41758;51.992;5.890;2022-10-19T17:48:10;20.00;69.50
55828;DHT22;41758;51.992;5.890;2022-10-19T17:50:36;19.90;69.60
55828;DHT22;41758;51.992;5.890;2022-10-19T17:53:02;20.00;69.60
55828;DHT22;41758;51.992;5.890;2022-10-19T17:55:27;19.90;69.50
55828;DHT22;41758;51.992;5.890;2022-10-19T17:57:53;19.90;69.60
55828;DHT22;41758;51.992;5.890;2022-10-19T18:00:19;19.90;69.70
55828;DHT22;41758;51.992;5.890;2022-10-19T18:02:45;19.90;69.80
55828;DHT22;41758;51.992;5.890;2022-10-19T18:05:11;19.90;69.80
55828;DHT22;41758;51.992;5.890;2022-10-19T18:07:36;19.90;69.60
55828;DHT22;41758;51.992;5.890;2022-10-19T18:10:02;19.90;69.80
55828;DHT22;41758;51.992;5.890;2022-10-19T18:12:28;19.80;69.80
55828;DHT22;41758;51.992;5.890;2022-10-19T18:14:54;19.80;69.70
55828;DHT22;41758;51.992;5.890;2022-10-19T18:17:20;19.80;69.80